Time;durP1;ratioP1;P1;durP2;ratioP2;P2;SDS_P1;SDS_P2;PMS_P1;PMS_P2;Temp;Humidity;BMP_temperature;BMP_pressure;BME280_temperature;BME280_humidity;BME280_pressure;Samples;Min_cycle;Max_cycle;Signal;HPM_P1;HPM_P2
2021/10/21 00:00:46;;;;;;;3.33;1.50;;;;;;;;;;5068797;28;20048;-66
2021/10/21 00:03:16;;;;;;;3.50;1.40;;;;;;;;;;5068762;28;20037;-66
2021/10/21 00:05:44;;;;;;;3.33;1.40;;;;;;;;;;5069781;28;20079;-67
2021/10/21 00:08:12;;;;;;;2.53;1.23;;;;;;;;;;5069656;28;20044;-66
2021/10/21 00:10:43;;;;;;;2.70;1.40;;;;;;;;;;5056058;28;20077;-66
2021/10/21 00:13:11;;;;;;;3.70;1.67;;;;;;;;;;5064470;28;20075;-68
2021/10/21 00:15:40;;;;;;;2.88;1.38;;;;;;;;;;5068400;28;20090;-66
2021/10/21 00:18:08;;;;;;;2.55;1.38;;;;;;;;;;5069256;28;20707;-68
2021/10/21 00:20:38;;;;;;;3.97;1.45;;;;;;;;;;5069076;28;20496;-68
2021/10/21 00:23:06;;;;;;;2.70;1.38;;;;;;;;;;5067035;28;20688;-68
2021/10/21 00:25:34;;;;;;;3.15;1.50;;;;;;;;;;5069308;28;20132;-66
2021/10/21 00:28:02;;;;;;;2.70;1.60;;;;;;;;;;5075628;28;20488;-65
2021/10/21 00:30:30;;;;;;;1.95;1.27;;;;;;;;;;5070510;28;20922;-66
2021/10/21 00:32:59;;;;;;;3.50;1.30;;;;;;;;;;5065552;28;20479;-69
2021/10/21 00:35:27;;;;;;;3.95;1.58;;;;;;;;;;5069513;28;20464;-66
2021/10/21 00:37:57;;;;;;;2.95;1.30;;;;;;;;;;5068955;28;20040;-66
2021/10/21 00:40:25;;;;;;;1.63;1.20;;;;;;;;;;5069465;28;20147;-65
2021/10/21 00:42:54;;;;;;;2.63;1.70;;;;;;;;;;5068006;28;20036;-66
2021/10/21 00:45:22;;;;;;;4.15;1.75;;;;;;;;;;5066028;28;20076;-65
2021/10/21 00:47:50;;;;;;;3.15;1.58;;;;;;;;;;5069376;28;20053;-66
2021/10/21 00:50:18;;;;;;;2.78;1.40;;;;;;;;;;5069284;28;20051;-67
2021/10/21 00:52:47;;;;;;;1.98;1.30;;;;;;;;;;5067930;28;20053;-69
2021/10/21 00:55:16;;;;;;;2.40;1.40;;;;;;;;;;5069508;28;20132;-66
2021/10/21 00:57:45;;;;;;;1.88;1.40;;;;;;;;;;5069112;28;20519;-67
2021/10/21 01:00:13;;;;;;;3.67;1.55;;;;;;;;;;5069759;28;20048;-66
2021/10/21 01:02:42;;;;;;;2.38;1.48;;;;;;;;;;5068826;28;20072;-66
2021/10/21 01:05:10;;;;;;;2.45;1.70;;;;;;;;;;5069425;28;20075;-67
2021/10/21 01:07:39;;;;;;;1.95;1.30;;;;;;;;;;5068554;28;20549;-68
2021/10/21 01:10:08;;;;;;;5.00;1.65;;;;;;;;;;5069086;28;20131;-69
2021/10/21 01:12:38;;;;;;;2.95;1.88;;;;;;;;;;5071520;28;20051;-66
2021/10/21 01:15:20;;;;;;;3.40;2.03;;;;;;;;;;5055681;28;20063;-67
2021/10/21 01:17:49;;;;;;;3.78;1.45;;;;;;;;;;5070680;28;20157;-66
2021/10/21 01:20:19;;;;;;;3.00;1.60;;;;;;;;;;5071490;28;20140;-68
2021/10/21 01:22:47;;;;;;;3.38;2.03;;;;;;;;;;5072308;28;20127;-70
2021/10/21 01:25:16;;;;;;;3.40;2.17;;;;;;;;;;5072593;28;20080;-67
2021/10/21 01:27:45;;;;;;;5.80;1.55;;;;;;;;;;5072188;28;20135;-66
2021/10/21 01:30:17;;;;;;;4.18;1.73;;;;;;;;;;5072376;28;20051;-66
2021/10/21 01:32:58;;;;;;;1.82;1.47;;;;;;;;;;3480193;28;10023385;-66
2021/10/21 01:35:28;;;;;;;3.88;1.60;;;;;;;;;;2605379;28;10001809;-66
2021/10/21 01:37:56;;;;;;;2.92;1.92;;;;;;;;;;5057657;28;20059;-67
2021/10/21 01:40:24;;;;;;;2.58;1.60;;;;;;;;;;5052560;28;20053;-65
2021/10/21 01:42:53;;;;;;;3.13;1.75;;;;;;;;;;5058909;28;20488;-66
2021/10/21 01:45:22;;;;;;;2.30;1.80;;;;;;;;;;5076171;28;20435;-67
2021/10/21 01:47:51;;;;;;;4.07;1.88;;;;;;;;;;5071217;28;20468;-67
2021/10/21 01:50:20;;;;;;;4.18;2.10;;;;;;;;;;5065058;28;20052;-66
2021/10/21 01:52:50;;;;;;;3.60;1.88;;;;;;;;;;5057838;28;20494;-66
2021/10/21 01:55:18;;;;;;;2.80;2.00;;;;;;;;;;5053009;28;20095;-66
2021/10/21 01:57:47;;;;;;;4.35;1.90;;;;;;;;;;5065567;28;20123;-66
2021/10/21 02:00:16;;;;;;;3.53;2.00;;;;;;;;;;5068945;28;20047;-65
2021/10/21 02:02:45;;;;;;;2.80;1.70;;;;;;;;;;5071068;28;20071;-66
2021/10/21 02:05:13;;;;;;;3.25;1.90;;;;;;;;;;5066766;28;20067;-65
2021/10/21 02:07:42;;;;;;;4.18;2.17;;;;;;;;;;5072529;28;20118;-65
2021/10/21 02:10:13;;;;;;;3.20;2.03;;;;;;;;;;5054177;28;20451;-66
2021/10/21 02:12:41;;;;;;;3.05;1.88;;;;;;;;;;5051685;28;20037;-66
2021/10/21 02:15:09;;;;;;;3.72;1.67;;;;;;;;;;5067516;28;20047;-66
2021/10/21 02:17:38;;;;;;;3.15;1.65;;;;;;;;;;5071768;28;20063;-69
2021/10/21 02:20:07;;;;;;;3.78;1.65;;;;;;;;;;5069254;28;20048;-67
2021/10/21 02:22:35;;;;;;;3.67;2.05;;;;;;;;;;5069294;28;20044;-66
2021/10/21 02:25:03;;;;;;;2.55;1.73;;;;;;;;;;5070344;28;20556;-66
2021/10/21 02:27:33;;;;;;;3.10;1.77;;;;;;;;;;5051941;28;20133;-66
2021/10/21 02:30:01;;;;;;;2.50;1.92;;;;;;;;;;5057371;28;20040;-67
2021/10/21 02:32:30;;;;;;;3.65;1.73;;;;;;;;;;5070697;28;20045;-66
2021/10/21 02:34:58;;;;;;;2.33;1.55;;;;;;;;;;5071069;28;20329;-67
2021/10/21 02:37:26;;;;;;;3.83;2.00;;;;;;;;;;5070966;28;20547;-66
2021/10/21 02:39:54;;;;;;;4.03;1.98;;;;;;;;;;5070364;28;20127;-67
2021/10/21 02:42:23;;;;;;;3.42;1.77;;;;;;;;;;5068672;28;20139;-67
2021/10/21 02:44:52;;;;;;;2.97;1.90;;;;;;;;;;5064131;28;20478;-65
2021/10/21 02:47:21;;;;;;;5.35;1.98;;;;;;;;;;5070636;28;20049;-67
2021/10/21 02:49:49;;;;;;;2.72;1.90;;;;;;;;;;5065235;28;20087;-67
2021/10/21 02:52:17;;;;;;;3.20;2.08;;;;;;;;;;5070882;28;20499;-66
2021/10/21 02:54:45;;;;;;;3.78;1.92;;;;;;;;;;5060173;28;20063;-66
2021/10/21 02:57:14;;;;;;;4.10;2.22;;;;;;;;;;5051389;28;20131;-69
2021/10/21 02:59:42;;;;;;;4.32;2.08;;;;;;;;;;5064754;28;20080;-67
2021/10/21 03:02:11;;;;;;;4.32;1.95;;;;;;;;;;5071407;28;20460;-67
2021/10/21 03:04:41;;;;;;;3.13;2.00;;;;;;;;;;5068317;28;20079;-67
2021/10/21 03:07:09;;;;;;;3.75;2.17;;;;;;;;;;5070315;28;20063;-70
2021/10/21 03:09:37;;;;;;;3.60;2.10;;;;;;;;;;5070368;28;20439;-68
2021/10/21 03:12:06;;;;;;;3.47;2.33;;;;;;;;;;5070613;28;20139;-66
2021/10/21 03:14:34;;;;;;;3.85;2.25;;;;;;;;;;5068724;28;20040;-66
2021/10/21 03:17:02;;;;;;;3.38;1.95;;;;;;;;;;5060315;28;20045;-68
2021/10/21 03:19:32;;;;;;;4.97;2.50;;;;;;;;;;5069038;28;20094;-66
2021/10/21 03:22:00;;;;;;;3.08;2.20;;;;;;;;;;5070245;28;20079;-67
2021/10/21 03:24:28;;;;;;;3.15;1.80;;;;;;;;;;5068842;28;20143;-66
2021/10/21 03:26:57;;;;;;;5.38;2.50;;;;;;;;;;5069837;28;20048;-68
2021/10/21 03:29:25;;;;;;;4.05;2.15;;;;;;;;;;5067804;28;20140;-66
2021/10/21 03:31:53;;;;;;;5.20;2.33;;;;;;;;;;5086070;28;20126;-66
2021/10/21 03:34:21;;;;;;;3.38;2.35;;;;;;;;;;5060014;28;20575;-66
2021/10/21 03:36:51;;;;;;;8.00;2.20;;;;;;;;;;5065652;28;20053;-69
2021/10/21 03:39:19;;;;;;;4.20;2.28;;;;;;;;;;5061143;28;20147;-66
2021/10/21 03:41:48;;;;;;;3.95;1.70;;;;;;;;;;5068001;28;20048;-68
2021/10/21 03:44:16;;;;;;;3.92;2.10;;;;;;;;;;5068311;28;20079;-67
2021/10/21 03:46:44;;;;;;;5.03;1.98;;;;;;;;;;5068482;28;20071;-68
2021/10/21 03:49:13;;;;;;;4.05;2.05;;;;;;;;;;5067953;28;20052;-66
2021/10/21 03:51:41;;;;;;;3.38;2.08;;;;;;;;;;5056590;28;20059;-67
2021/10/21 03:54:13;;;;;;;6.82;2.03;;;;;;;;;;5065496;28;20127;-67
2021/10/21 03:56:43;;;;;;;3.53;2.13;;;;;;;;;;5057174;28;20532;-66
2021/10/21 03:59:12;;;;;;;5.80;1.95;;;;;;;;;;5065470;28;20052;-66
2021/10/21 04:01:40;;;;;;;2.63;1.80;;;;;;;;;;5067062;28;20504;-67
2021/10/21 04:04:09;;;;;;;3.38;1.83;;;;;;;;;;5068909;28;20143;-68
2021/10/21 04:06:37;;;;;;;4.40;1.98;;;;;;;;;;5067513;28;20074;-66
2021/10/21 04:09:05;;;;;;;7.13;2.38;;;;;;;;;;5057082;28;20044;-68
2021/10/21 04:11:35;;;;;;;2.88;2.10;;;;;;;;;;5067316;28;20488;-67
2021/10/21 04:14:03;;;;;;;5.15;1.95;;;;;;;;;;5069127;28;20139;-68
2021/10/21 04:16:31;;;;;;;4.72;2.03;;;;;;;;;;5066749;28;20128;-67
2021/10/21 04:19:00;;;;;;;3.78;2.10;;;;;;;;;;5069737;28;20044;-67
2021/10/21 04:21:28;;;;;;;2.97;2.00;;;;;;;;;;5065856;28;20428;-66
2021/10/21 04:23:56;;;;;;;6.18;2.38;;;;;;;;;;5069695;28;20055;-69
2021/10/21 04:26:25;;;;;;;4.35;2.20;;;;;;;;;;5068248;28;20056;-66
2021/10/21 04:28:54;;;;;;;5.32;2.20;;;;;;;;;;5090095;28;20059;-66
2021/10/21 04:31:22;;;;;;;5.53;2.03;;;;;;;;;;5069457;28;20145;-69
2021/10/21 04:33:51;;;;;;;4.30;2.28;;;;;;;;;;5069170;28;20048;-66
2021/10/21 04:36:19;;;;;;;4.95;2.53;;;;;;;;;;5068209;28;20128;-66
2021/10/21 04:38:48;;;;;;;4.97;2.33;;;;;;;;;;5069362;28;20135;-66
2021/10/21 04:41:16;;;;;;;3.67;2.33;;;;;;;;;;5068786;28;20052;-66
2021/10/21 04:43:44;;;;;;;6.43;2.25;;;;;;;;;;5067517;28;20044;-66
2021/10/21 04:46:14;;;;;;;3.97;2.30;;;;;;;;;;5069137;28;20084;-66
2021/10/21 04:48:42;;;;;;;4.95;2.47;;;;;;;;;;5073697;28;20080;-65
2021/10/21 04:51:11;;;;;;;6.75;2.75;;;;;;;;;;5063565;28;20076;-66
2021/10/21 04:53:39;;;;;;;7.90;2.75;;;;;;;;;;5068120;28;20051;-67
2021/10/21 04:56:08;;;;;;;6.30;2.58;;;;;;;;;;5061685;28;20570;-67
2021/10/21 04:58:37;;;;;;;6.28;2.25;;;;;;;;;;5071917;28;20048;-65
2021/10/21 05:01:05;;;;;;;4.78;2.90;;;;;;;;;;5070854;28;20044;-66
2021/10/21 05:03:35;;;;;;;8.05;2.83;;;;;;;;;;5072668;28;20050;-65
2021/10/21 05:06:03;;;;;;;4.78;2.45;;;;;;;;;;5072939;28;20052;-67
2021/10/21 05:08:31;;;;;;;6.35;2.78;;;;;;;;;;5075834;28;20052;-68
2021/10/21 05:11:00;;;;;;;5.72;2.90;;;;;;;;;;5072859;28;20055;-65
2021/10/21 05:13:28;;;;;;;5.13;2.47;;;;;;;;;;5058802;28;20136;-65
2021/10/21 05:15:56;;;;;;;4.47;2.67;;;;;;;;;;5071979;28;20415;-65
2021/10/21 05:18:24;;;;;;;5.05;2.67;;;;;;;;;;5074729;28;20155;-67
2021/10/21 05:20:55;;;;;;;4.20;2.80;;;;;;;;;;5081634;28;20407;-65
2021/10/21 05:23:23;;;;;;;7.10;2.88;;;;;;;;;;5073878;28;20480;-66
2021/10/21 05:25:51;;;;;;;5.80;2.88;;;;;;;;;;5075869;28;20044;-65
2021/10/21 05:28:19;;;;;;;5.10;2.85;;;;;;;;;;5065143;28;20052;-66
2021/10/21 05:30:51;;;;;;;4.22;2.67;;;;;;;;;;5057321;28;20127;-66
2021/10/21 05:33:23;;;;;;;6.05;3.22;;;;;;;;;;5056389;28;20069;-68
2021/10/21 05:35:51;;;;;;;7.38;3.35;;;;;;;;;;5053212;28;20054;-66
2021/10/21 05:38:21;;;;;;;6.25;3.35;;;;;;;;;;5068862;28;20043;-65
2021/10/21 05:40:50;;;;;;;5.70;3.08;;;;;;;;;;5066693;28;20052;-66
2021/10/21 05:43:21;;;;;;;7.07;2.78;;;;;;;;;;5068626;28;20072;-67
2021/10/21 05:45:50;;;;;;;8.85;3.40;;;;;;;;;;5069300;28;20484;-66
2021/10/21 05:48:18;;;;;;;6.53;2.92;;;;;;;;;;5067704;28;20053;-65
2021/10/21 05:50:46;;;;;;;7.53;3.20;;;;;;;;;;5065518;28;20098;-66
2021/10/21 05:53:15;;;;;;;7.05;2.80;;;;;;;;;;5069914;28;20059;-66
2021/10/21 05:55:44;;;;;;;5.45;1.90;;;;;;;;;;5079782;28;20044;-67
2021/10/21 05:58:13;;;;;;;2.55;1.80;;;;;;;;;;5064406;28;20048;-68
2021/10/21 06:00:42;;;;;;;1.73;1.20;;;;;;;;;;5068385;28;20087;-66
2021/10/21 06:03:10;;;;;;;4.43;1.38;;;;;;;;;;5066115;28;20060;-66
2021/10/21 06:05:39;;;;;;;2.03;1.02;;;;;;;;;;5070132;28;20083;-68
2021/10/21 06:08:07;;;;;;;3.22;0.80;;;;;;;;;;5056324;28;20048;-67
2021/10/21 06:10:35;;;;;;;1.83;0.88;;;;;;;;;;5067214;28;20421;-66
2021/10/21 06:13:05;;;;;;;1.45;0.85;;;;;;;;;;5067766;28;20072;-67
2021/10/21 06:15:33;;;;;;;1.92;1.17;;;;;;;;;;5067697;28;20127;-66
2021/10/21 06:18:04;;;;;;;3.20;0.90;;;;;;;;;;5063327;28;20045;-66
2021/10/21 06:20:34;;;;;;;1.92;0.77;;;;;;;;;;5073098;28;20498;-70
2021/10/21 06:23:07;;;;;;;;;;;;;;;;;;5055915;28;20059;-66
2021/10/21 06:25:35;;;;;;;2.97;0.63;;;;;;;;;;5061945;28;19930;-67
2021/10/21 06:28:03;;;;;;;1.15;0.55;;;;;;;;;;5069913;28;20080;-67
2021/10/21 06:30:33;;;;;;;4.18;0.70;;;;;;;;;;5070477;28;20083;-66
2021/10/21 06:33:01;;;;;;;3.80;0.80;;;;;;;;;;5069236;28;20527;-65
2021/10/21 06:35:30;;;;;;;2.13;0.45;;;;;;;;;;5070476;28;20058;-65
2021/10/21 06:37:58;;;;;;;2.92;0.38;;;;;;;;;;5070403;28;20131;-65
2021/10/21 06:40:27;;;;;;;0.50;0.20;;;;;;;;;;5069484;28;20048;-66
2021/10/21 06:42:55;;;;;;;1.35;0.80;;;;;;;;;;5077245;28;20123;-66
2021/10/21 06:45:24;;;;;;;1.98;0.65;;;;;;;;;;5090354;28;20882;-67
2021/10/21 06:48:03;;;;;;;4.03;0.60;;;;;;;;;;5075001;28;20044;-66
2021/10/21 06:50:31;;;;;;;0.63;0.20;;;;;;;;;;5069673;28;20200;-70
2021/10/21 06:53:00;;;;;;;1.27;0.20;;;;;;;;;;5065129;28;20324;-66
2021/10/21 06:55:28;;;;;;;1.05;0.20;;;;;;;;;;5070717;28;20218;-67
2021/10/21 06:57:58;;;;;;;1.13;0.28;;;;;;;;;;5063406;28;20110;-65
2021/10/21 07:00:27;;;;;;;2.67;0.38;;;;;;;;;;5070175;28;20098;-65
2021/10/21 07:02:57;;;;;;;2.03;0.30;;;;;;;;;;5063391;28;20055;-65
2021/10/21 07:05:29;;;;;;;0.52;0.22;;;;;;;;;;5078609;28;20126;-65
2021/10/21 07:07:57;;;;;;;2.28;0.60;;;;;;;;;;5054726;28;20091;-67
2021/10/21 07:10:25;;;;;;;1.58;0.40;;;;;;;;;;5070712;28;20139;-69
2021/10/21 07:12:54;;;;;;;0.43;0.30;;;;;;;;;;5061086;28;20172;-65
2021/10/21 07:15:22;;;;;;;5.10;0.60;;;;;;;;;;5067809;28;20123;-67
2021/10/21 07:17:50;;;;;;;4.07;0.40;;;;;;;;;;5071385;28;20101;-66
2021/10/21 07:20:19;;;;;;;5.00;0.47;;;;;;;;;;5069235;28;20044;-65
2021/10/21 07:22:48;;;;;;;2.63;0.57;;;;;;;;;;5065010;28;20048;-66
2021/10/21 07:25:17;;;;;;;1.02;0.40;;;;;;;;;;5071561;28;20078;-65
2021/10/21 07:27:45;;;;;;;2.83;0.30;;;;;;;;;;5069520;28;20141;-66
2021/10/21 07:30:14;;;;;;;3.17;0.40;;;;;;;;;;5068058;28;20560;-66
2021/10/21 07:32:43;;;;;;;4.53;0.60;;;;;;;;;;5068200;28;20123;-65
2021/10/21 07:35:12;;;;;;;1.25;0.40;;;;;;;;;;5068861;28;20048;-66
2021/10/21 07:37:40;;;;;;;1.30;0.50;;;;;;;;;;5069758;28;20052;-68
2021/10/21 07:40:11;;;;;;;1.55;0.40;;;;;;;;;;5066541;28;20118;-69
2021/10/21 07:42:40;;;;;;;1.27;0.50;;;;;;;;;;5069198;28;20082;-68
2021/10/21 07:45:09;;;;;;;5.82;0.47;;;;;;;;;;5067868;28;20055;-70
2021/10/21 07:47:37;;;;;;;2.80;0.73;;;;;;;;;;5074248;28;20048;-66
2021/10/21 07:50:07;;;;;;;3.97;0.52;;;;;;;;;;5065243;28;20044;-66
2021/10/21 07:52:37;;;;;;;4.47;0.93;;;;;;;;;;5066053;28;20518;-66
2021/10/21 07:55:07;;;;;;;1.42;0.40;;;;;;;;;;5068440;28;20075;-70
2021/10/21 07:57:37;;;;;;;1.08;0.47;;;;;;;;;;5065335;28;20567;-65
2021/10/21 08:00:07;;;;;;;3.45;0.60;;;;;;;;;;5069671;28;20488;-66
2021/10/21 08:02:35;;;;;;;4.55;0.70;;;;;;;;;;5067675;28;20139;-65
2021/10/21 08:05:04;;;;;;;3.72;0.90;;;;;;;;;;5069517;28;20047;-70
2021/10/21 08:07:37;;;;;;;6.80;0.50;;;;;;;;;;5074488;28;20037;-65
2021/10/21 08:10:06;;;;;;;1.90;0.40;;;;;;;;;;5068676;28;20174;-68
2021/10/21 08:12:36;;;;;;;5.15;0.57;;;;;;;;;;5069011;28;20053;-65
2021/10/21 08:15:05;;;;;;;3.25;0.43;;;;;;;;;;5069473;28;20074;-66
2021/10/21 08:17:34;;;;;;;6.65;1.00;;;;;;;;;;5072891;28;20041;-70
2021/10/21 08:20:02;;;;;;;3.60;0.65;;;;;;;;;;5068953;28;20130;-66
2021/10/21 08:22:32;;;;;;;4.68;1.02;;;;;;;;;;5071306;28;20471;-66
2021/10/21 08:25:01;;;;;;;1.70;0.60;;;;;;;;;;5065208;28;20083;-67
2021/10/21 08:27:29;;;;;;;3.30;0.80;;;;;;;;;;5072327;28;20088;-66
2021/10/21 08:29:59;;;;;;;6.45;1.35;;;;;;;;;;5072335;28;20056;-66
2021/10/21 08:32:27;;;;;;;4.35;0.95;;;;;;;;;;5069108;28;20098;-68
2021/10/21 08:34:55;;;;;;;3.05;0.98;;;;;;;;;;5071077;28;20052;-65
2021/10/21 08:37:24;;;;;;;2.45;0.50;;;;;;;;;;5070879;28;20056;-64
2021/10/21 08:39:53;;;;;;;4.38;0.60;;;;;;;;;;5068598;28;20072;-66
2021/10/21 08:42:21;;;;;;;1.30;0.50;;;;;;;;;;5069263;28;20056;-68
2021/10/21 08:44:53;;;;;;;1.80;0.40;;;;;;;;;;5071803;28;20052;-65
2021/10/21 08:47:23;;;;;;;2.70;0.63;;;;;;;;;;5071370;28;20135;-66
2021/10/21 08:49:53;;;;;;;3.95;0.68;;;;;;;;;;5068703;28;20074;-65
2021/10/21 08:52:22;;;;;;;0.65;0.35;;;;;;;;;;5069543;28;20048;-66
2021/10/21 08:54:51;;;;;;;5.68;0.98;;;;;;;;;;5070978;28;20812;-65
2021/10/21 08:57:19;;;;;;;3.22;0.50;;;;;;;;;;5067611;28;20143;-65
2021/10/21 08:59:48;;;;;;;4.38;0.65;;;;;;;;;;5072075;28;20052;-65
2021/10/21 09:02:20;;;;;;;4.43;0.65;;;;;;;;;;5068183;28;20554;-69
2021/10/21 09:05:03;;;;;;;6.43;0.52;;;;;;;;;;5071916;28;20051;-66
2021/10/21 09:10:18;;;;;;;0.90;0.30;;;;;;;;;;5072981;28;20443;-67
2021/10/21 09:12:47;;;;;;;3.10;0.60;;;;;;;;;;5067552;28;20050;-66
2021/10/21 09:15:17;;;;;;;4.13;0.50;;;;;;;;;;5058792;28;20900;-67
2021/10/21 09:17:46;;;;;;;7.97;0.60;;;;;;;;;;5070446;28;20054;-67
2021/10/21 09:20:38;;;;;;;4.53;0.65;;;;;;;;;;5084199;28;20185;-66
2021/10/21 09:23:09;;;;;;;9.05;0.60;;;;;;;;;;5064794;28;20048;-68
2021/10/21 09:25:38;;;;;;;10.05;0.90;;;;;;;;;;5068365;28;20467;-66
2021/10/21 09:28:17;;;;;;;7.65;0.93;;;;;;;;;;5067677;28;20076;-67
2021/10/21 09:30:50;;;;;;;7.75;0.80;;;;;;;;;;5068375;28;20044;-66
2021/10/21 09:33:19;;;;;;;3.80;0.40;;;;;;;;;;5071102;28;20038;-66
2021/10/21 09:35:58;;;;;;;7.22;1.35;;;;;;;;;;5070854;28;20139;-68
2021/10/21 09:38:29;;;;;;;3.90;0.63;;;;;;;;;;5070396;28;20044;-65
2021/10/21 09:41:02;;;;;;;4.07;0.80;;;;;;;;;;5076488;28;20109;-68
2021/10/21 09:43:35;;;;;;;6.50;0.65;;;;;;;;;;5075696;28;20084;-66
2021/10/21 09:46:05;;;;;;;7.13;0.73;;;;;;;;;;5068278;28;20044;-69
2021/10/21 09:48:34;;;;;;;13.88;0.88;;;;;;;;;;5065784;28;20056;-67
2021/10/21 09:51:02;;;;;;;4.05;0.68;;;;;;;;;;5067452;28;20431;-66
2021/10/21 09:53:32;;;;;;;4.57;0.40;;;;;;;;;;5066910;28;20074;-68
2021/10/21 09:56:06;;;;;;;7.45;0.63;;;;;;;;;;5071723;28;20060;-66
2021/10/21 09:58:36;;;;;;;1.48;0.40;;;;;;;;;;5084085;28;20544;-67
2021/10/21 10:01:08;;;;;;;4.63;0.50;;;;;;;;;;5072884;28;20713;-66
2021/10/21 10:03:39;;;;;;;1.60;0.55;;;;;;;;;;5068788;28;20135;-66
2021/10/21 10:06:08;;;;;;;3.33;0.45;;;;;;;;;;5064554;28;20131;-68
2021/10/21 10:08:39;;;;;;;10.85;1.17;;;;;;;;;;5071547;28;20123;-68
2021/10/21 10:11:11;;;;;;;1.92;0.60;;;;;;;;;;5071618;28;20040;-65
2021/10/21 10:13:41;;;;;;;7.85;0.70;;;;;;;;;;5070323;28;20071;-68
2021/10/21 10:16:09;;;;;;;7.70;1.48;;;;;;;;;;5074896;28;20093;-69
2021/10/21 10:18:42;;;;;;;3.17;0.80;;;;;;;;;;5092140;28;20056;-66
2021/10/21 10:21:12;;;;;;;1.67;0.50;;;;;;;;;;5070369;28;20059;-68
2021/10/21 10:23:49;;;;;;;3.25;0.70;;;;;;;;;;5066094;28;20646;-68
2021/10/21 10:26:33;;;;;;;3.78;0.63;;;;;;;;;;5068204;28;20049;-67
2021/10/21 10:29:01;;;;;;;8.80;0.90;;;;;;;;;;5067276;28;20555;-67
2021/10/21 10:31:40;;;;;;;1.50;0.40;;;;;;;;;;5069828;28;20645;-66
2021/10/21 10:34:09;;;;;;;5.82;0.85;;;;;;;;;;5069883;28;20131;-67
2021/10/21 10:36:37;;;;;;;5.00;0.70;;;;;;;;;;5070880;28;20106;-66
2021/10/21 10:39:08;;;;;;;2.03;0.47;;;;;;;;;;5065530;28;20057;-68
2021/10/21 10:42:00;;;;;;;3.17;0.35;;;;;;;;;;5071569;28;20140;-66
2021/10/21 10:44:47;;;;;;;5.47;0.88;;;;;;;;;;5074290;28;20457;-67
2021/10/21 10:47:15;;;;;;;6.68;0.68;;;;;;;;;;5084449;28;20060;-65
2021/10/21 10:49:49;;;;;;;4.40;0.45;;;;;;;;;;5072402;28;20480;-67
2021/10/21 10:52:18;;;;;;;8.25;0.80;;;;;;;;;;5071169;28;20040;-66
2021/10/21 10:54:55;;;;;;;6.57;0.80;;;;;;;;;;5064794;28;20404;-66
2021/10/21 10:57:42;;;;;;;7.22;0.82;;;;;;;;;;5070514;28;20131;-66
2021/10/21 11:00:25;;;;;;;2.28;1.00;;;;;;;;;;5070920;28;20562;-68
2021/10/21 11:02:57;;;;;;;4.88;0.52;;;;;;;;;;5050301;28;20102;-66
2021/10/21 11:05:46;;;;;;;8.38;0.77;;;;;;;;;;5066653;28;20048;-65
2021/10/21 11:08:16;;;;;;;4.03;0.90;;;;;;;;;;5068168;28;20048;-66
2021/10/21 11:10:46;;;;;;;4.03;0.55;;;;;;;;;;5069595;28;20052;-66
2021/10/21 11:13:36;;;;;;;1.35;0.55;;;;;;;;;;5063264;28;20044;-67
2021/10/21 11:16:07;;;;;;;7.38;0.70;;;;;;;;;;5064274;28;20045;-67
2021/10/21 11:18:51;;;;;;;4.93;0.47;;;;;;;;;;5069301;28;20051;-66
2021/10/21 11:21:35;;;;;;;2.92;0.65;;;;;;;;;;5060135;28;20037;-66
2021/10/21 11:24:04;;;;;;;2.70;0.95;;;;;;;;;;5045923;28;20131;-67
2021/10/21 11:26:35;;;;;;;2.55;0.60;;;;;;;;;;5064378;28;20049;-66
2021/10/21 11:29:04;;;;;;;6.93;0.70;;;;;;;;;;5069492;28;20060;-67
2021/10/21 11:31:35;;;;;;;1.15;0.30;;;;;;;;;;5060850;28;20546;-65
2021/10/21 11:34:04;;;;;;;1.00;0.30;;;;;;;;;;5069003;28;20102;-66
2021/10/21 11:36:46;;;;;;;6.82;0.52;;;;;;;;;;5069974;28;20444;-69
2021/10/21 11:39:15;;;;;;;7.05;0.50;;;;;;;;;;5069090;28;20106;-67
2021/10/21 11:41:45;;;;;;;0.88;0.20;;;;;;;;;;5067653;28;20279;-65
2021/10/21 11:44:13;;;;;;;1.23;0.20;;;;;;;;;;5068414;28;20394;-67
2021/10/21 11:46:43;;;;;;;1.48;0.52;;;;;;;;;;5062720;28;20052;-66
2021/10/21 11:49:11;;;;;;;1.65;0.40;;;;;;;;;;5066363;28;20048;-67
2021/10/21 11:51:40;;;;;;;4.85;0.50;;;;;;;;;;5064640;28;20551;-69
2021/10/21 11:54:09;;;;;;;1.38;0.25;;;;;;;;;;5066309;28;20052;-66
2021/10/21 11:56:38;;;;;;;4.05;0.82;;;;;;;;;;5065547;28;20036;-69
2021/10/21 11:59:12;;;;;;;3.70;0.45;;;;;;;;;;5071349;28;20044;-69
2021/10/21 12:01:40;;;;;;;1.65;0.68;;;;;;;;;;5064036;28;20084;-69
2021/10/21 12:04:09;;;;;;;5.25;0.40;;;;;;;;;;5057289;28;20045;-71
2021/10/21 12:06:42;;;;;;;2.70;0.35;;;;;;;;;;5066934;28;20094;-65
2021/10/21 12:09:11;;;;;;;3.83;0.80;;;;;;;;;;5066356;28;20500;-67
2021/10/21 12:11:41;;;;;;;4.47;0.40;;;;;;;;;;5065612;28;20610;-66
2021/10/21 12:14:12;;;;;;;3.03;0.80;;;;;;;;;;5064515;28;20057;-67
2021/10/21 12:16:40;;;;;;;1.33;0.50;;;;;;;;;;5061223;28;20056;-68
2021/10/21 12:19:10;;;;;;;4.82;0.63;;;;;;;;;;5066359;28;20076;-68
2021/10/21 12:21:41;;;;;;;0.82;0.20;;;;;;;;;;5061307;28;20496;-69
2021/10/21 12:24:19;;;;;;;1.65;0.45;;;;;;;;;;5065431;28;20381;-65
2021/10/21 12:26:53;;;;;;;2.28;0.45;;;;;;;;;;5065777;28;20087;-65
2021/10/21 12:29:24;;;;;;;2.78;0.52;;;;;;;;;;5068567;28;20115;-67
2021/10/21 12:31:52;;;;;;;0.45;0.30;;;;;;;;;;5067045;28;20057;-66
2021/10/21 12:34:25;;;;;;;0.50;0.35;;;;;;;;;;5068479;28;20048;-65
2021/10/21 12:36:55;;;;;;;2.70;0.35;;;;;;;;;;5068136;28;20048;-65
2021/10/21 12:39:26;;;;;;;2.03;0.40;;;;;;;;;;5068962;28;20040;-66
2021/10/21 12:41:56;;;;;;;2.30;0.30;;;;;;;;;;5065625;28;20048;-65
2021/10/21 12:44:30;;;;;;;2.45;0.40;;;;;;;;;;5068681;28;20048;-66
2021/10/21 12:47:22;;;;;;;5.15;0.30;;;;;;;;;;5068638;28;20106;-65
2021/10/21 12:49:54;;;;;;;1.27;0.30;;;;;;;;;;5075367;28;20435;-71
2021/10/21 12:52:25;;;;;;;1.65;0.70;;;;;;;;;;5064550;28;20044;-65
2021/10/21 12:55:07;;;;;;;0.50;0.20;;;;;;;;;;5060895;28;20083;-69
2021/10/21 12:57:41;;;;;;;3.13;0.60;;;;;;;;;;5063489;28;20048;-69
2021/10/21 13:00:13;;;;;;;2.08;0.50;;;;;;;;;;5065083;28;20053;-68
2021/10/21 13:02:43;;;;;;;4.25;0.32;;;;;;;;;;5060919;28;20045;-66
2021/10/21 13:05:23;;;;;;;2.92;0.35;;;;;;;;;;5060269;28;20063;-67
2021/10/21 13:07:52;;;;;;;1.30;0.38;;;;;;;;;;5048905;28;20476;-66
2021/10/21 13:10:21;;;;;;;1.65;0.30;;;;;;;;;;5072598;28;20048;-68
2021/10/21 13:12:49;;;;;;;0.80;0.47;;;;;;;;;;5056996;28;20156;-68
2021/10/21 13:15:19;;;;;;;0.57;0.22;;;;;;;;;;5068298;28;20049;-67
2021/10/21 13:17:48;;;;;;;0.70;0.15;;;;;;;;;;5068968;28;20496;-68
2021/10/21 13:20:20;;;;;;;2.10;0.30;;;;;;;;;;5068675;28;20049;-68
2021/10/21 13:22:49;;;;;;;0.40;0.20;;;;;;;;;;5067229;28;20500;-65
2021/10/21 13:25:18;;;;;;;2.35;0.30;;;;;;;;;;5065691;28;20141;-66
2021/10/21 13:27:47;;;;;;;2.72;0.50;;;;;;;;;;5068802;28;20048;-68
2021/10/21 13:30:15;;;;;;;3.47;0.63;;;;;;;;;;5067745;28;20048;-68
2021/10/21 13:32:46;;;;;;;3.50;0.30;;;;;;;;;;5067633;28;20059;-65
2021/10/21 13:35:17;;;;;;;0.95;0.32;;;;;;;;;;5068267;28;20422;-66
2021/10/21 13:37:45;;;;;;;1.10;0.50;;;;;;;;;;5072618;28;20086;-67
2021/10/21 13:40:14;;;;;;;2.55;0.73;;;;;;;;;;5071113;28;20123;-67
2021/10/21 13:42:44;;;;;;;3.03;0.40;;;;;;;;;;5067063;28;20106;-67
2021/10/21 13:45:12;;;;;;;1.55;0.40;;;;;;;;;;5068185;28;20056;-68
2021/10/21 13:47:41;;;;;;;2.15;0.28;;;;;;;;;;5068579;28;20178;-70
2021/10/21 13:50:11;;;;;;;0.45;0.28;;;;;;;;;;5070301;28;20048;-66
2021/10/21 13:52:40;;;;;;;1.95;0.17;;;;;;;;;;5066891;28;20087;-67
2021/10/21 13:55:09;;;;;;;1.42;0.40;;;;;;;;;;5068561;28;20435;-66
2021/10/21 13:57:38;;;;;;;1.35;0.40;;;;;;;;;;5061150;28;20045;-66
2021/10/21 14:00:09;;;;;;;1.95;0.28;;;;;;;;;;5066821;28;20135;-66
2021/10/21 14:02:37;;;;;;;4.97;0.50;;;;;;;;;;5062739;28;20063;-66
2021/10/21 14:05:06;;;;;;;1.65;0.50;;;;;;;;;;5065908;28;20049;-68
2021/10/21 14:07:36;;;;;;;4.13;0.55;;;;;;;;;;5068257;28;20094;-66
2021/10/21 14:10:05;;;;;;;5.18;0.50;;;;;;;;;;5070228;28;20045;-65
2021/10/21 14:12:33;;;;;;;1.50;0.40;;;;;;;;;;5069717;28;20477;-66
2021/10/21 14:15:02;;;;;;;2.88;0.50;;;;;;;;;;5069636;28;20114;-66
2021/10/21 14:17:31;;;;;;;0.77;0.30;;;;;;;;;;5070680;28;20772;-70
2021/10/21 14:20:00;;;;;;;1.88;0.40;;;;;;;;;;5051481;28;20118;-65
2021/10/21 14:22:29;;;;;;;1.75;0.38;;;;;;;;;;5062362;28;20407;-66
2021/10/21 14:24:59;;;;;;;2.33;0.50;;;;;;;;;;5062343;28;20543;-65
2021/10/21 14:27:27;;;;;;;0.93;0.38;;;;;;;;;;5070655;28;20045;-65
2021/10/21 14:29:55;;;;;;;1.75;0.30;;;;;;;;;;5070548;28;20051;-66
2021/10/21 14:32:24;;;;;;;1.70;0.40;;;;;;;;;;5066403;28;20040;-71
2021/10/21 14:34:56;;;;;;;2.70;0.35;;;;;;;;;;5063277;28;20169;-68
2021/10/21 14:37:27;;;;;;;2.28;0.40;;;;;;;;;;5058282;28;20056;-68
2021/10/21 14:39:55;;;;;;;1.13;0.40;;;;;;;;;;5068123;28;20102;-68
2021/10/21 14:42:25;;;;;;;2.95;0.50;;;;;;;;;;5063931;28;20476;-69
2021/10/21 14:44:53;;;;;;;3.10;0.60;;;;;;;;;;5065957;28;20091;-68
2021/10/21 14:47:22;;;;;;;2.65;0.47;;;;;;;;;;5066654;28;20056;-69
2021/10/21 14:49:51;;;;;;;0.93;0.28;;;;;;;;;;5067977;28;20575;-69
2021/10/21 14:52:19;;;;;;;0.63;0.30;;;;;;;;;;5066180;28;20049;-67
2021/10/21 14:54:48;;;;;;;3.42;0.63;;;;;;;;;;5066018;28;20488;-65
2021/10/21 14:57:16;;;;;;;2.05;0.40;;;;;;;;;;5066973;28;20076;-67
2021/10/21 14:59:46;;;;;;;1.98;0.30;;;;;;;;;;5067277;28;20055;-65
2021/10/21 15:02:15;;;;;;;4.32;0.40;;;;;;;;;;5065447;28;20037;-66